sensor_id;sensor_type;location;lat;lon;timestamp;P1;durP1;ratioP1;P2;durP2;ratioP2
50291;SDS011;36190;54.980;73.388;2023-04-03T00:02:26;12.93;;;3.80;;
50291;SDS011;36190;54.980;73.388;2023-04-03T00:04:53;8.77;;;3.63;;
50291;SDS011;36190;54.980;73.388;2023-04-03T00:07:21;10.13;;;3.97;;
50291;SDS011;36190;54.980;73.388;2023-04-03T00:09:49;17.25;;;4.82;;
50291;SDS011;36190;54.980;73.388;2023-04-03T00:12:16;14.38;;;4.70;;
50291;SDS011;36190;54.980;73.388;2023-04-03T00:14:43;9.90;;;4.00;;
50291;SDS011;36190;54.980;73.388;2023-04-03T00:17:12;9.40;;;3.72;;
50291;SDS011;36190;54.980;73.388;2023-04-03T00:19:40;18.20;;;5.07;;
50291;SDS011;36190;54.980;73.388;2023-04-03T00:22:07;13.82;;;4.13;;
50291;SDS011;36190;54.980;73.388;2023-04-03T00:24:34;12.75;;;4.10;;
50291;SDS011;36190;54.980;73.388;2023-04-03T00:27:02;12.27;;;3.75;;
50291;SDS011;36190;54.980;73.388;2023-04-03T00:29:29;12.55;;;4.10;;
50291;SDS011;36190;54.980;73.388;2023-04-03T00:31:57;14.13;;;4.30;;
50291;SDS011;36190;54.980;73.388;2023-04-03T00:34:25;13.75;;;4.13;;
50291;SDS011;36190;54.980;73.388;2023-04-03T00:36:53;25.40;;;4.72;;
50291;SDS011;36190;54.980;73.388;2023-04-03T00:39:20;14.60;;;4.57;;
50291;SDS011;36190;54.980;73.388;2023-04-03T00:41:48;15.18;;;3.60;;
50291;SDS011;36190;54.980;73.388;2023-04-03T00:44:22;25.58;;;4.80;;
50291;SDS011;36190;54.980;73.388;2023-04-03T00:47:10;20.85;;;4.13;;
50291;SDS011;36190;54.980;73.388;2023-04-03T00:49:41;15.93;;;4.55;;
50291;SDS011;36190;54.980;73.388;2023-04-03T00:52:10;21.45;;;4.68;;
50291;SDS011;36190;54.980;73.388;2023-04-03T00:54:42;20.47;;;4.90;;
50291;SDS011;36190;54.980;73.388;2023-04-03T00:57:13;18.42;;;4.45;;
50291;SDS011;36190;54.980;73.388;2023-04-03T00:59:42;18.35;;;4.65;;
50291;SDS011;36190;54.980;73.388;2023-04-03T01:02:14;26.58;;;6.22;;
50291;SDS011;36190;54.980;73.388;2023-04-03T01:04:44;29.00;;;5.88;;
50291;SDS011;36190;54.980;73.388;2023-04-03T01:07:13;21.77;;;5.30;;
50291;SDS011;36190;54.980;73.388;2023-04-03T01:09:43;19.98;;;7.35;;
50291;SDS011;36190;54.980;73.388;2023-04-03T01:12:14;34.88;;;5.88;;
50291;SDS011;36190;54.980;73.388;2023-04-03T01:14:42;20.75;;;5.95;;
50291;SDS011;36190;54.980;73.388;2023-04-03T01:20:14;34.35;;;6.13;;
50291;SDS011;36190;54.980;73.388;2023-04-03T01:23:19;21.88;;;6.43;;
50291;SDS011;36190;54.980;73.388;2023-04-03T01:25:57;29.75;;;6.82;;
50291;SDS011;36190;54.980;73.388;2023-04-03T01:28:25;28.42;;;6.78;;
50291;SDS011;36190;54.980;73.388;2023-04-03T01:30:56;18.25;;;5.13;;
50291;SDS011;36190;54.980;73.388;2023-04-03T01:33:32;17.20;;;5.75;;
50291;SDS011;36190;54.980;73.388;2023-04-03T01:35:59;19.45;;;6.05;;
50291;SDS011;36190;54.980;73.388;2023-04-03T01:38:26;25.67;;;5.13;;
50291;SDS011;36190;54.980;73.388;2023-04-03T01:40:54;25.58;;;4.78;;
50291;SDS011;36190;54.980;73.388;2023-04-03T01:43:21;35.08;;;5.80;;
50291;SDS011;36190;54.980;73.388;2023-04-03T01:45:49;26.65;;;6.05;;
50291;SDS011;36190;54.980;73.388;2023-04-03T01:48:18;18.58;;;4.57;;
50291;SDS011;36190;54.980;73.388;2023-04-03T01:50:47;25.08;;;5.65;;
50291;SDS011;36190;54.980;73.388;2023-04-03T01:53:14;23.63;;;5.22;;
50291;SDS011;36190;54.980;73.388;2023-04-03T01:55:42;23.48;;;5.57;;
50291;SDS011;36190;54.980;73.388;2023-04-03T01:58:09;19.65;;;5.00;;
50291;SDS011;36190;54.980;73.388;2023-04-03T02:00:37;29.55;;;6.20;;
50291;SDS011;36190;54.980;73.388;2023-04-03T02:03:04;21.27;;;5.55;;
50291;SDS011;36190;54.980;73.388;2023-04-03T02:05:32;31.17;;;7.40;;
50291;SDS011;36190;54.980;73.388;2023-04-03T02:08:01;33.60;;;5.40;;
50291;SDS011;36190;54.980;73.388;2023-04-03T02:10:28;25.30;;;4.60;;
50291;SDS011;36190;54.980;73.388;2023-04-03T02:12:56;21.48;;;5.50;;
50291;SDS011;36190;54.980;73.388;2023-04-03T02:15:23;19.67;;;5.13;;
50291;SDS011;36190;54.980;73.388;2023-04-03T02:17:51;27.63;;;6.15;;
50291;SDS011;36190;54.980;73.388;2023-04-03T02:20:19;32.92;;;6.13;;
50291;SDS011;36190;54.980;73.388;2023-04-03T02:22:46;15.68;;;4.35;;
50291;SDS011;36190;54.980;73.388;2023-04-03T02:25:16;19.98;;;4.40;;
50291;SDS011;36190;54.980;73.388;2023-04-03T02:27:44;19.85;;;5.85;;
50291;SDS011;36190;54.980;73.388;2023-04-03T02:30:11;35.00;;;6.28;;
50291;SDS011;36190;54.980;73.388;2023-04-03T02:32:39;29.27;;;4.28;;
50291;SDS011;36190;54.980;73.388;2023-04-03T02:35:07;22.75;;;4.30;;
50291;SDS011;36190;54.980;73.388;2023-04-03T02:37:35;24.85;;;5.32;;
50291;SDS011;36190;54.980;73.388;2023-04-03T02:40:03;44.85;;;5.95;;
50291;SDS011;36190;54.980;73.388;2023-04-03T02:42:33;24.13;;;5.05;;
50291;SDS011;36190;54.980;73.388;2023-04-03T02:45:01;15.65;;;4.72;;
50291;SDS011;36190;54.980;73.388;2023-04-03T02:47:29;17.60;;;5.32;;
50291;SDS011;36190;54.980;73.388;2023-04-03T02:49:56;17.92;;;5.00;;
50291;SDS011;36190;54.980;73.388;2023-04-03T02:52:24;18.60;;;5.20;;
50291;SDS011;36190;54.980;73.388;2023-04-03T02:54:51;15.10;;;4.70;;
50291;SDS011;36190;54.980;73.388;2023-04-03T02:57:19;20.60;;;6.70;;
50291;SDS011;36190;54.980;73.388;2023-04-03T02:59:48;14.80;;;4.50;;
50291;SDS011;36190;54.980;73.388;2023-04-03T03:02:15;25.08;;;5.38;;
50291;SDS011;36190;54.980;73.388;2023-04-03T03:04:42;17.85;;;4.72;;
50291;SDS011;36190;54.980;73.388;2023-04-03T03:07:10;19.17;;;5.00;;
50291;SDS011;36190;54.980;73.388;2023-04-03T03:09:37;12.80;;;4.38;;
50291;SDS011;36190;54.980;73.388;2023-04-03T03:12:05;16.50;;;4.82;;
50291;SDS011;36190;54.980;73.388;2023-04-03T03:14:32;22.05;;;4.97;;
50291;SDS011;36190;54.980;73.388;2023-04-03T03:17:01;37.08;;;6.32;;
50291;SDS011;36190;54.980;73.388;2023-04-03T03:19:29;16.23;;;4.47;;
50291;SDS011;36190;54.980;73.388;2023-04-03T03:21:56;14.70;;;5.30;;
50291;SDS011;36190;54.980;73.388;2023-04-03T03:24:24;22.58;;;4.75;;
50291;SDS011;36190;54.980;73.388;2023-04-03T03:26:51;15.63;;;4.72;;
50291;SDS011;36190;54.980;73.388;2023-04-03T03:29:19;13.05;;;4.88;;
50291;SDS011;36190;54.980;73.388;2023-04-03T03:31:46;14.30;;;5.07;;
50291;SDS011;36190;54.980;73.388;2023-04-03T03:34:15;13.60;;;5.50;;
50291;SDS011;36190;54.980;73.388;2023-04-03T03:36:43;12.02;;;4.68;;
50291;SDS011;36190;54.980;73.388;2023-04-03T03:39:12;14.20;;;4.40;;
50291;SDS011;36190;54.980;73.388;2023-04-03T03:41:39;14.00;;;4.45;;
50291;SDS011;36190;54.980;73.388;2023-04-03T03:44:07;19.50;;;4.03;;
50291;SDS011;36190;54.980;73.388;2023-04-03T03:46:34;12.63;;;4.43;;
50291;SDS011;36190;54.980;73.388;2023-04-03T03:49:02;25.90;;;5.38;;
50291;SDS011;36190;54.980;73.388;2023-04-03T03:51:31;18.25;;;5.20;;
50291;SDS011;36190;54.980;73.388;2023-04-03T03:53:58;14.00;;;4.10;;
50291;SDS011;36190;54.980;73.388;2023-04-03T03:56:26;10.85;;;3.80;;
50291;SDS011;36190;54.980;73.388;2023-04-03T03:58:53;15.00;;;3.97;;
50291;SDS011;36190;54.980;73.388;2023-04-03T04:01:21;14.77;;;4.18;;
50291;SDS011;36190;54.980;73.388;2023-04-03T04:03:48;14.73;;;4.63;;
50291;SDS011;36190;54.980;73.388;2023-04-03T04:06:16;25.17;;;5.07;;
50291;SDS011;36190;54.980;73.388;2023-04-03T04:08:45;16.17;;;4.85;;
50291;SDS011;36190;54.980;73.388;2023-04-03T04:11:13;17.45;;;5.38;;
50291;SDS011;36190;54.980;73.388;2023-04-03T04:13:40;15.07;;;4.38;;
50291;SDS011;36190;54.980;73.388;2023-04-03T04:16:08;13.23;;;4.63;;
50291;SDS011;36190;54.980;73.388;2023-04-03T04:18:36;12.80;;;4.40;;
50291;SDS011;36190;54.980;73.388;2023-04-03T04:21:03;19.67;;;6.50;;
50291;SDS011;36190;54.980;73.388;2023-04-03T04:23:31;15.80;;;5.57;;
50291;SDS011;36190;54.980;73.388;2023-04-03T04:26:00;22.08;;;5.88;;
50291;SDS011;36190;54.980;73.388;2023-04-03T04:28:27;14.98;;;4.75;;
50291;SDS011;36190;54.980;73.388;2023-04-03T04:30:55;30.17;;;5.93;;
50291;SDS011;36190;54.980;73.388;2023-04-03T04:33:23;33.63;;;6.47;;
50291;SDS011;36190;54.980;73.388;2023-04-03T04:35:51;12.68;;;4.75;;
50291;SDS011;36190;54.980;73.388;2023-04-03T04:38:19;17.55;;;5.28;;
50291;SDS011;36190;54.980;73.388;2023-04-03T04:40:48;32.17;;;7.07;;
50291;SDS011;36190;54.980;73.388;2023-04-03T04:43:17;18.00;;;5.60;;
50291;SDS011;36190;54.980;73.388;2023-04-03T04:45:45;18.05;;;6.03;;
50291;SDS011;36190;54.980;73.388;2023-04-03T04:48:12;19.08;;;5.30;;
50291;SDS011;36190;54.980;73.388;2023-04-03T04:50:40;12.55;;;4.68;;
50291;SDS011;36190;54.980;73.388;2023-04-03T04:53:09;27.23;;;6.90;;
50291;SDS011;36190;54.980;73.388;2023-04-03T04:55:36;18.25;;;4.22;;
50291;SDS011;36190;54.980;73.388;2023-04-03T04:58:04;19.90;;;5.05;;
50291;SDS011;36190;54.980;73.388;2023-04-03T05:00:33;19.02;;;6.07;;
50291;SDS011;36190;54.980;73.388;2023-04-03T05:03:00;18.38;;;6.82;;
50291;SDS011;36190;54.980;73.388;2023-04-03T05:05:28;33.47;;;6.80;;
50291;SDS011;36190;54.980;73.388;2023-04-03T05:07:55;17.52;;;7.13;;
50291;SDS011;36190;54.980;73.388;2023-04-03T05:10:23;20.58;;;6.55;;
50291;SDS011;36190;54.980;73.388;2023-04-03T05:12:51;19.67;;;5.78;;
50291;SDS011;36190;54.980;73.388;2023-04-03T05:15:18;16.45;;;5.20;;
50291;SDS011;36190;54.980;73.388;2023-04-03T05:17:47;15.00;;;4.75;;
50291;SDS011;36190;54.980;73.388;2023-04-03T05:20:15;19.60;;;5.82;;
50291;SDS011;36190;54.980;73.388;2023-04-03T05:22:43;22.42;;;5.95;;
50291;SDS011;36190;54.980;73.388;2023-04-03T05:25:11;17.90;;;5.47;;
50291;SDS011;36190;54.980;73.388;2023-04-03T05:27:38;46.25;;;9.02;;
50291;SDS011;36190;54.980;73.388;2023-04-03T05:30:06;17.48;;;7.07;;
50291;SDS011;36190;54.980;73.388;2023-04-03T05:32:35;24.77;;;6.07;;
50291;SDS011;36190;54.980;73.388;2023-04-03T05:35:04;20.65;;;5.50;;
50291;SDS011;36190;54.980;73.388;2023-04-03T05:37:32;22.27;;;5.80;;
50291;SDS011;36190;54.980;73.388;2023-04-03T05:40:01;26.25;;;6.88;;
50291;SDS011;36190;54.980;73.388;2023-04-03T05:42:28;16.77;;;5.25;;
50291;SDS011;36190;54.980;73.388;2023-04-03T05:44:56;25.67;;;5.72;;
50291;SDS011;36190;54.980;73.388;2023-04-03T05:47:23;21.98;;;5.22;;
50291;SDS011;36190;54.980;73.388;2023-04-03T05:49:51;15.65;;;4.53;;
50291;SDS011;36190;54.980;73.388;2023-04-03T05:52:22;11.05;;;3.78;;
50291;SDS011;36190;54.980;73.388;2023-04-03T05:54:52;26.30;;;6.03;;
50291;SDS011;36190;54.980;73.388;2023-04-03T05:57:20;22.00;;;4.95;;
50291;SDS011;36190;54.980;73.388;2023-04-03T05:59:47;23.25;;;5.05;;
50291;SDS011;36190;54.980;73.388;2023-04-03T06:02:15;17.25;;;4.75;;
50291;SDS011;36190;54.980;73.388;2023-04-03T06:04:44;13.05;;;5.05;;
50291;SDS011;36190;54.980;73.388;2023-04-03T06:07:13;14.02;;;4.40;;
50291;SDS011;36190;54.980;73.388;2023-04-03T06:09:44;38.05;;;5.97;;
50291;SDS011;36190;54.980;73.388;2023-04-03T06:12:12;16.08;;;4.78;;
50291;SDS011;36190;54.980;73.388;2023-04-03T06:14:40;9.70;;;3.90;;
50291;SDS011;36190;54.980;73.388;2023-04-03T06:17:07;15.90;;;4.63;;
50291;SDS011;36190;54.980;73.388;2023-04-03T06:19:35;15.18;;;4.45;;
50291;SDS011;36190;54.980;73.388;2023-04-03T06:22:03;13.68;;;5.30;;
50291;SDS011;36190;54.980;73.388;2023-04-03T06:24:31;12.70;;;5.00;;
50291;SDS011;36190;54.980;73.388;2023-04-03T06:26:59;15.60;;;5.25;;
50291;SDS011;36190;54.980;73.388;2023-04-03T06:29:27;15.35;;;4.75;;
50291;SDS011;36190;54.980;73.388;2023-04-03T06:31:54;18.13;;;5.78;;
50291;SDS011;36190;54.980;73.388;2023-04-03T06:34:22;32.55;;;6.22;;
50291;SDS011;36190;54.980;73.388;2023-04-03T06:36:50;16.30;;;5.10;;
50291;SDS011;36190;54.980;73.388;2023-04-03T06:39:18;20.30;;;5.65;;
50291;SDS011;36190;54.980;73.388;2023-04-03T06:41:48;22.48;;;5.90;;
50291;SDS011;36190;54.980;73.388;2023-04-03T06:44:17;19.25;;;5.15;;
50291;SDS011;36190;54.980;73.388;2023-04-03T06:46:45;21.80;;;5.60;;
50291;SDS011;36190;54.980;73.388;2023-04-03T06:49:13;19.95;;;6.25;;
50291;SDS011;36190;54.980;73.388;2023-04-03T06:51:41;21.08;;;5.63;;
50291;SDS011;36190;54.980;73.388;2023-04-03T06:54:09;18.63;;;5.85;;
50291;SDS011;36190;54.980;73.388;2023-04-03T06:56:36;18.27;;;6.35;;
50291;SDS011;36190;54.980;73.388;2023-04-03T06:59:04;19.98;;;5.68;;
50291;SDS011;36190;54.980;73.388;2023-04-03T07:01:33;30.23;;;6.90;;
50291;SDS011;36190;54.980;73.388;2023-04-03T07:04:00;14.48;;;4.75;;
50291;SDS011;36190;54.980;73.388;2023-04-03T07:06:30;19.77;;;5.57;;
50291;SDS011;36190;54.980;73.388;2023-04-03T07:08:58;19.10;;;4.78;;
50291;SDS011;36190;54.980;73.388;2023-04-03T07:11:27;15.90;;;4.55;;
50291;SDS011;36190;54.980;73.388;2023-04-03T07:13:54;16.27;;;4.22;;
50291;SDS011;36190;54.980;73.388;2023-04-03T07:16:22;22.13;;;5.30;;
50291;SDS011;36190;54.980;73.388;2023-04-03T07:18:51;13.40;;;4.50;;
50291;SDS011;36190;54.980;73.388;2023-04-03T07:21:18;14.95;;;4.85;;
50291;SDS011;36190;54.980;73.388;2023-04-03T07:23:45;13.40;;;3.90;;
50291;SDS011;36190;54.980;73.388;2023-04-03T07:26:13;18.75;;;4.65;;
50291;SDS011;36190;54.980;73.388;2023-04-03T07:28:41;18.98;;;5.25;;
50291;SDS011;36190;54.980;73.388;2023-04-03T07:31:10;18.42;;;5.55;;
50291;SDS011;36190;54.980;73.388;2023-04-03T07:33:38;10.98;;;4.38;;
50291;SDS011;36190;54.980;73.388;2023-04-03T07:36:09;14.65;;;4.53;;
50291;SDS011;36190;54.980;73.388;2023-04-03T07:38:40;14.90;;;4.88;;
50291;SDS011;36190;54.980;73.388;2023-04-03T07:41:10;15.32;;;5.93;;
50291;SDS011;36190;54.980;73.388;2023-04-03T07:43:39;26.00;;;7.45;;
50291;SDS011;36190;54.980;73.388;2023-04-03T07:46:07;16.73;;;6.55;;
50291;SDS011;36190;54.980;73.388;2023-04-03T07:48:35;24.45;;;5.25;;
50291;SDS011;36190;54.980;73.388;2023-04-03T07:51:04;21.55;;;6.18;;
50291;SDS011;36190;54.980;73.388;2023-04-03T07:53:33;15.73;;;5.40;;
50291;SDS011;36190;54.980;73.388;2023-04-03T07:56:01;17.73;;;5.15;;
50291;SDS011;36190;54.980;73.388;2023-04-03T07:58:28;25.73;;;5.18;;
50291;SDS011;36190;54.980;73.388;2023-04-03T08:00:56;25.15;;;6.72;;
50291;SDS011;36190;54.980;73.388;2023-04-03T08:03:24;21.75;;;6.10;;
50291;SDS011;36190;54.980;73.388;2023-04-03T08:05:51;21.48;;;5.43;;
50291;SDS011;36190;54.980;73.388;2023-04-03T08:08:20;19.67;;;6.00;;
50291;SDS011;36190;54.980;73.388;2023-04-03T08:10:51;25.17;;;5.93;;
50291;SDS011;36190;54.980;73.388;2023-04-03T08:13:20;14.90;;;5.40;;
50291;SDS011;36190;54.980;73.388;2023-04-03T08:15:48;17.50;;;4.93;;
50291;SDS011;36190;54.980;73.388;2023-04-03T08:18:16;14.15;;;4.05;;
50291;SDS011;36190;54.980;73.388;2023-04-03T08:20:47;14.57;;;4.70;;
50291;SDS011;36190;54.980;73.388;2023-04-03T08:23:14;20.85;;;5.60;;
50291;SDS011;36190;54.980;73.388;2023-04-03T08:25:42;12.52;;;4.45;;
50291;SDS011;36190;54.980;73.388;2023-04-03T08:28:12;14.93;;;4.15;;
50291;SDS011;36190;54.980;73.388;2023-04-03T08:30:39;15.30;;;4.70;;
50291;SDS011;36190;54.980;73.388;2023-04-03T08:33:08;10.48;;;4.30;;
50291;SDS011;36190;54.980;73.388;2023-04-03T08:35:38;18.77;;;4.93;;
50291;SDS011;36190;54.980;73.388;2023-04-03T08:38:06;18.20;;;7.63;;
50291;SDS011;36190;54.980;73.388;2023-04-03T08:40:34;23.33;;;7.15;;
50291;SDS011;36190;54.980;73.388;2023-04-03T08:43:03;15.55;;;5.25;;
50291;SDS011;36190;54.980;73.388;2023-04-03T08:45:48;16.27;;;4.70;;
50291;SDS011;36190;54.980;73.388;2023-04-03T08:48:19;14.63;;;3.90;;
50291;SDS011;36190;54.980;73.388;2023-04-03T08:50:50;18.00;;;5.18;;
50291;SDS011;36190;54.980;73.388;2023-04-03T08:53:21;10.80;;;4.28;;
50291;SDS011;36190;54.980;73.388;2023-04-03T08:55:53;14.90;;;4.70;;
50291;SDS011;36190;54.980;73.388;2023-04-03T08:58:25;17.67;;;4.47;;
50291;SDS011;36190;54.980;73.388;2023-04-03T09:00:55;16.40;;;4.53;;
50291;SDS011;36190;54.980;73.388;2023-04-03T09:03:28;24.33;;;5.05;;
50291;SDS011;36190;54.980;73.388;2023-04-03T09:05:59;13.50;;;5.22;;
50291;SDS011;36190;54.980;73.388;2023-04-03T09:08:30;22.42;;;4.47;;
50291;SDS011;36190;54.980;73.388;2023-04-03T09:11:05;14.00;;;5.28;;
50291;SDS011;36190;54.980;73.388;2023-04-03T09:13:43;17.73;;;5.22;;
50291;SDS011;36190;54.980;73.388;2023-04-03T09:16:27;18.70;;;4.28;;
50291;SDS011;36190;54.980;73.388;2023-04-03T09:19:04;13.60;;;3.60;;
50291;SDS011;36190;54.980;73.388;2023-04-03T09:21:38;13.50;;;5.43;;
50291;SDS011;36190;54.980;73.388;2023-04-03T09:24:09;23.92;;;4.95;;
50291;SDS011;36190;54.980;73.388;2023-04-03T09:26:41;11.32;;;4.13;;
50291;SDS011;36190;54.980;73.388;2023-04-03T09:29:16;13.77;;;4.25;;
50291;SDS011;36190;54.980;73.388;2023-04-03T09:31:46;15.47;;;5.03;;
50291;SDS011;36190;54.980;73.388;2023-04-03T09:34:18;19.45;;;5.15;;
50291;SDS011;36190;54.980;73.388;2023-04-03T09:36:49;19.05;;;5.18;;
50291;SDS011;36190;54.980;73.388;2023-04-03T09:39:18;21.13;;;5.13;;
50291;SDS011;36190;54.980;73.388;2023-04-03T09:41:57;18.08;;;4.55;;
50291;SDS011;36190;54.980;73.388;2023-04-03T09:44:28;20.13;;;5.40;;
50291;SDS011;36190;54.980;73.388;2023-04-03T09:47:16;22.73;;;5.50;;
50291;SDS011;36190;54.980;73.388;2023-04-03T09:49:45;14.82;;;4.90;;
50291;SDS011;36190;54.980;73.388;2023-04-03T09:52:19;20.45;;;5.28;;
50291;SDS011;36190;54.980;73.388;2023-04-03T09:54:50;20.60;;;4.38;;
50291;SDS011;36190;54.980;73.388;2023-04-03T09:57:18;20.90;;;5.82;;
50291;SDS011;36190;54.980;73.388;2023-04-03T09:59:48;27.10;;;6.00;;
50291;SDS011;36190;54.980;73.388;2023-04-03T10:02:30;26.70;;;5.63;;
50291;SDS011;36190;54.980;73.388;2023-04-03T10:05:01;18.40;;;4.40;;
50291;SDS011;36190;54.980;73.388;2023-04-03T10:07:30;18.90;;;5.68;;
50291;SDS011;36190;54.980;73.388;2023-04-03T10:10:02;21.05;;;5.30;;
50291;SDS011;36190;54.980;73.388;2023-04-03T10:12:42;19.35;;;5.47;;
50291;SDS011;36190;54.980;73.388;2023-04-03T10:15:13;21.33;;;5.22;;
50291;SDS011;36190;54.980;73.388;2023-04-03T10:17:47;26.63;;;5.18;;
50291;SDS011;36190;54.980;73.388;2023-04-03T10:20:26;19.67;;;5.32;;
50291;SDS011;36190;54.980;73.388;2023-04-03T10:23:01;15.18;;;5.00;;
50291;SDS011;36190;54.980;73.388;2023-04-03T10:25:41;18.92;;;5.10;;
50291;SDS011;36190;54.980;73.388;2023-04-03T10:28:16;15.48;;;4.65;;
50291;SDS011;36190;54.980;73.388;2023-04-03T10:30:54;14.82;;;4.68;;
50291;SDS011;36190;54.980;73.388;2023-04-03T10:36:17;21.42;;;4.97;;
50291;SDS011;36190;54.980;73.388;2023-04-03T10:38:51;31.35;;;6.35;;
50291;SDS011;36190;54.980;73.388;2023-04-03T10:41:31;25.08;;;6.40;;
50291;SDS011;36190;54.980;73.388;2023-04-03T10:44:09;31.70;;;6.32;;
50291;SDS011;36190;54.980;73.388;2023-04-03T10:46:48;20.52;;;5.57;;
50291;SDS011;36190;54.980;73.388;2023-04-03T10:49:25;22.08;;;4.70;;
50291;SDS011;36190;54.980;73.388;2023-04-03T10:52:10;16.75;;;4.72;;
50291;SDS011;36190;54.980;73.388;2023-04-03T10:54:45;11.43;;;4.28;;
50291;SDS011;36190;54.980;73.388;2023-04-03T10:59:46;17.90;;;5.85;;
50291;SDS011;36190;54.980;73.388;2023-04-03T11:02:19;17.85;;;4.20;;
50291;SDS011;36190;54.980;73.388;2023-04-03T11:04:52;26.75;;;5.88;;
50291;SDS011;36190;54.980;73.388;2023-04-03T11:07:24;17.02;;;4.07;;
50291;SDS011;36190;54.980;73.388;2023-04-03T11:09:57;21.25;;;4.85;;
50291;SDS011;36190;54.980;73.388;2023-04-03T11:12:33;14.90;;;4.67;;
50291;SDS011;36190;54.980;73.388;2023-04-03T11:15:05;17.45;;;5.05;;
50291;SDS011;36190;54.980;73.388;2023-04-03T11:17:41;17.05;;;4.82;;
50291;SDS011;36190;54.980;73.388;2023-04-03T11:20:14;18.27;;;4.63;;
50291;SDS011;36190;54.980;73.388;2023-04-03T11:22:45;18.92;;;4.22;;
50291;SDS011;36190;54.980;73.388;2023-04-03T11:25:19;13.48;;;4.20;;
50291;SDS011;36190;54.980;73.388;2023-04-03T11:27:50;16.77;;;4.50;;
50291;SDS011;36190;54.980;73.388;2023-04-03T11:30:23;19.90;;;4.95;;
50291;SDS011;36190;54.980;73.388;2023-04-03T11:33:08;12.07;;;3.90;;
50291;SDS011;36190;54.980;73.388;2023-04-03T11:35:47;15.63;;;4.10;;
50291;SDS011;36190;54.980;73.388;2023-04-03T11:38:19;13.85;;;4.10;;
50291;SDS011;36190;54.980;73.388;2023-04-03T11:40:51;41.47;;;7.18;;
50291;SDS011;36190;54.980;73.388;2023-04-03T11:43:21;17.65;;;4.30;;
50291;SDS011;36190;54.980;73.388;2023-04-03T11:45:52;23.00;;;5.70;;
50291;SDS011;36190;54.980;73.388;2023-04-03T11:48:45;18.77;;;4.78;;
50291;SDS011;36190;54.980;73.388;2023-04-03T11:57:23;23.33;;;5.53;;
50291;SDS011;36190;54.980;73.388;2023-04-03T12:12:33;23.30;;;6.47;;
50291;SDS011;36190;54.980;73.388;2023-04-03T12:15:17;18.90;;;5.82;;
50291;SDS011;36190;54.980;73.388;2023-04-03T12:17:47;19.65;;;5.53;;
50291;SDS011;36190;54.980;73.388;2023-04-03T12:23:24;22.02;;;5.32;;
50291;SDS011;36190;54.980;73.388;2023-04-03T12:25:58;31.65;;;5.63;;
50291;SDS011;36190;54.980;73.388;2023-04-03T12:28:32;17.85;;;5.00;;
50291;SDS011;36190;54.980;73.388;2023-04-03T12:31:04;18.10;;;5.40;;
50291;SDS011;36190;54.980;73.388;2023-04-03T12:33:37;14.02;;;4.43;;
50291;SDS011;36190;54.980;73.388;2023-04-03T12:36:15;23.15;;;5.07;;
50291;SDS011;36190;54.980;73.388;2023-04-03T12:38:57;17.35;;;4.75;;
50291;SDS011;36190;54.980;73.388;2023-04-03T12:41:46;19.20;;;5.00;;
50291;SDS011;36190;54.980;73.388;2023-04-03T12:44:30;18.20;;;5.40;;
50291;SDS011;36190;54.980;73.388;2023-04-03T12:47:16;25.02;;;5.57;;
50291;SDS011;36190;54.980;73.388;2023-04-03T12:49:53;17.75;;;5.97;;
50291;SDS011;36190;54.980;73.388;2023-04-03T12:52:28;18.42;;;4.90;;
50291;SDS011;36190;54.980;73.388;2023-04-03T12:54:59;16.83;;;5.78;;
50291;SDS011;36190;54.980;73.388;2023-04-03T12:57:29;29.77;;;5.63;;
50291;SDS011;36190;54.980;73.388;2023-04-03T12:59:59;17.88;;;5.50;;
50291;SDS011;36190;54.980;73.388;2023-04-03T13:02:27;45.78;;;9.38;;
50291;SDS011;36190;54.980;73.388;2023-04-03T13:04:57;15.35;;;5.50;;
50291;SDS011;36190;54.980;73.388;2023-04-03T13:07:28;22.85;;;6.07;;
50291;SDS011;36190;54.980;73.388;2023-04-03T13:09:59;16.58;;;5.82;;
50291;SDS011;36190;54.980;73.388;2023-04-03T13:12:45;21.95;;;6.13;;
50291;SDS011;36190;54.980;73.388;2023-04-03T13:15:17;17.05;;;5.20;;
50291;SDS011;36190;54.980;73.388;2023-04-03T13:17:46;23.52;;;5.90;;
50291;SDS011;36190;54.980;73.388;2023-04-03T13:20:17;30.35;;;5.78;;
50291;SDS011;36190;54.980;73.388;2023-04-03T13:22:52;17.30;;;5.93;;
50291;SDS011;36190;54.980;73.388;2023-04-03T13:25:24;17.05;;;6.18;;
50291;SDS011;36190;54.980;73.388;2023-04-03T13:27:54;25.10;;;7.07;;
50291;SDS011;36190;54.980;73.388;2023-04-03T13:30:26;37.95;;;8.80;;
50291;SDS011;36190;54.980;73.388;2023-04-03T13:32:56;24.20;;;7.90;;
50291;SDS011;36190;54.980;73.388;2023-04-03T13:35:31;25.33;;;6.93;;
50291;SDS011;36190;54.980;73.388;2023-04-03T13:38:06;40.33;;;9.30;;
50291;SDS011;36190;54.980;73.388;2023-04-03T13:40:49;34.53;;;8.60;;
50291;SDS011;36190;54.980;73.388;2023-04-03T13:43:21;41.78;;;9.93;;
50291;SDS011;36190;54.980;73.388;2023-04-03T13:46:00;46.00;;;10.73;;
50291;SDS011;36190;54.980;73.388;2023-04-03T13:48:35;27.98;;;8.70;;
50291;SDS011;36190;54.980;73.388;2023-04-03T13:51:05;36.17;;;9.88;;
50291;SDS011;36190;54.980;73.388;2023-04-03T13:53:44;31.98;;;9.07;;
50291;SDS011;36190;54.980;73.388;2023-04-03T13:56:16;56.40;;;12.13;;
50291;SDS011;36190;54.980;73.388;2023-04-03T14:01:50;49.80;;;11.32;;
50291;SDS011;36190;54.980;73.388;2023-04-03T14:04:21;52.80;;;10.48;;
50291;SDS011;36190;54.980;73.388;2023-04-03T14:06:51;33.67;;;7.90;;
50291;SDS011;36190;54.980;73.388;2023-04-03T14:09:20;49.10;;;10.55;;
50291;SDS011;36190;54.980;73.388;2023-04-03T14:11:49;59.55;;;10.18;;
50291;SDS011;36190;54.980;73.388;2023-04-03T14:14:21;45.97;;;9.77;;
50291;SDS011;36190;54.980;73.388;2023-04-03T14:16:55;47.57;;;10.17;;
50291;SDS011;36190;54.980;73.388;2023-04-03T14:19:28;40.13;;;9.00;;
50291;SDS011;36190;54.980;73.388;2023-04-03T14:21:58;42.47;;;9.65;;
50291;SDS011;36190;54.980;73.388;2023-04-03T14:24:27;58.05;;;11.35;;
50291;SDS011;36190;54.980;73.388;2023-04-03T14:26:54;45.58;;;10.23;;
50291;SDS011;36190;54.980;73.388;2023-04-03T14:29:22;51.33;;;10.05;;
50291;SDS011;36190;54.980;73.388;2023-04-03T14:31:50;39.28;;;9.63;;
50291;SDS011;36190;54.980;73.388;2023-04-03T14:34:19;35.45;;;9.25;;
50291;SDS011;36190;54.980;73.388;2023-04-03T14:36:46;51.28;;;11.30;;
50291;SDS011;36190;54.980;73.388;2023-04-03T14:39:16;53.83;;;12.60;;
50291;SDS011;36190;54.980;73.388;2023-04-03T14:41:45;55.63;;;12.65;;
50291;SDS011;36190;54.980;73.388;2023-04-03T14:44:13;61.22;;;13.68;;
50291;SDS011;36190;54.980;73.388;2023-04-03T14:46:41;46.53;;;12.20;;
50291;SDS011;36190;54.980;73.388;2023-04-03T14:49:12;51.17;;;10.82;;
50291;SDS011;36190;54.980;73.388;2023-04-03T14:51:43;59.88;;;12.25;;
50291;SDS011;36190;54.980;73.388;2023-04-03T14:54:12;48.20;;;12.18;;
50291;SDS011;36190;54.980;73.388;2023-04-03T14:56:40;44.83;;;10.80;;
50291;SDS011;36190;54.980;73.388;2023-04-03T14:59:10;40.30;;;9.70;;
50291;SDS011;36190;54.980;73.388;2023-04-03T15:01:39;24.35;;;8.48;;
50291;SDS011;36190;54.980;73.388;2023-04-03T15:04:10;43.08;;;11.07;;
50291;SDS011;36190;54.980;73.388;2023-04-03T15:06:38;48.90;;;11.15;;
50291;SDS011;36190;54.980;73.388;2023-04-03T15:09:10;47.33;;;12.23;;
50291;SDS011;36190;54.980;73.388;2023-04-03T15:11:46;36.15;;;10.48;;
50291;SDS011;36190;54.980;73.388;2023-04-03T15:14:14;41.78;;;10.75;;